Chiyomaru No.28 — 28CHIYO — position and weather

sailwx.info

Track history (hours):
 
Tides and Currents Weather Stations Pressure Air Temp Water Temp Dewpoint Dewpoint Depression Visibility Wind Speed Wind Dir Waves Ship Positions

Chiyomaru No.28

Last reported at 2018-Feb-24 05:28 UTC. Time now 2018-Feb-24 06:00 UTC.
Position N 34°39' E 135°28'.

Length 18 m; draft 5 m.

Type: Tug. MMSI: 431000432.

Date/timePositionNaut miles runAvg speedWind from/ knotsBaromVisibWave heightAir tempDewpointWater temp
2018-Feb-24 05:28N 34°39' E 135°28'0 0.0
2018-Feb-24 04:58N 34°39' E 135°28'0 0.0
2018-Feb-24 04:28N 34°39' E 135°28'0 0.0
2018-Feb-24 03:58N 34°39' E 135°28'0 0.0
2018-Feb-24 03:28N 34°39' E 135°28'0 0.0
2018-Feb-24 02:58N 34°39' E 135°28'0 0.0
2018-Feb-24 02:28N 34°39' E 135°28'0 0.0
2018-Feb-24 01:58N 34°39' E 135°28'0 0.0
2018-Feb-24 01:28N 34°39' E 135°28'0 0.0
2018-Feb-24 00:58N 34°39' E 135°28'0 0.0
2018-Feb-24 00:28N 34°39' E 135°28'0 0.0
2018-Feb-23 23:58N 34°39' E 135°28'0 0.0
2018-Feb-23 23:28N 34°39' E 135°28'0 0.0
2018-Feb-23 22:58N 34°39' E 135°28'0 0.0
2018-Feb-23 22:28N 34°39' E 135°28'0 0.0
2018-Feb-23 21:58N 34°39' E 135°28'0 0.0
2018-Feb-23 21:28N 34°39' E 135°28'0 0.0
2018-Feb-23 20:58N 34°39' E 135°28'0 0.0
2018-Feb-23 20:28N 34°39' E 135°28'0 0.0
2018-Feb-23 19:58N 34°39' E 135°28'0 0.0
2018-Feb-23 19:28N 34°39' E 135°28'0 0.0
2018-Feb-23 18:58N 34°39' E 135°28'0 0.0
2018-Feb-23 18:28N 34°39' E 135°28'0 0.0
2018-Feb-23 17:58N 34°39' E 135°28'0 0.0
2018-Feb-23 17:28N 34°39' E 135°28'0 0.0
2018-Feb-23 16:58N 34°39' E 135°28'0 0.0
2018-Feb-23 16:28N 34°39' E 135°28'0 0.0
2018-Feb-23 15:58N 34°39' E 135°28'0 0.0
2018-Feb-23 15:28N 34°39' E 135°28'0 0.0
2018-Feb-23 14:58N 34°39' E 135°28'0 0.0
2018-Feb-23 14:28N 34°39' E 135°28'0 0.0
2018-Feb-23 13:58N 34°39' E 135°28'0 0.0
2018-Feb-23 13:28N 34°39' E 135°28'0 0.0
2018-Feb-23 12:58N 34°39' E 135°28'0 0.0
2018-Feb-23 12:28N 34°39' E 135°28'0 0.0
2018-Feb-23 11:58N 34°39' E 135°28'0 0.0
2018-Feb-23 11:28N 34°39' E 135°28'0 0.0
2018-Feb-23 10:58N 34°39' E 135°28'0 0.0
2018-Feb-23 10:28N 34°39' E 135°28'0 0.0
2018-Feb-23 09:58N 34°39' E 135°28'0 0.0
2018-Feb-23 09:28N 34°39' E 135°28'0 0.0
2018-Feb-23 08:58N 34°39' E 135°28'0 0.0
2018-Feb-23 08:28N 34°39' E 135°28'0 0.0
2018-Feb-23 07:58N 34°39' E 135°28'2 5.1
2018-Feb-23 07:29N 34°39' E 135°25'3 5.8
2018-Feb-23 06:57N 34°41' E 135°22'0 0.0
2018-Feb-23 06:30N 34°41' E 135°22'0 0.0
2018-Feb-23 05:58N 34°41' E 135°22'0 0.0
2018-Feb-23 05:28N 34°41' E 135°22'0 0.0
2018-Feb-23 04:59N 34°41' E 135°22'0 0.0
2018-Feb-23 04:30N 34°41' E 135°22'0 0.0
2018-Feb-23 04:01N 34°41' E 135°22'0 0.0
2018-Feb-23 03:28N 34°41' E 135°22'0 0.0
2018-Feb-23 02:58N 34°41' E 135°22'0 0.0
2018-Feb-23 02:30N 34°41' E 135°22'0 0.0
2018-Feb-23 01:58N 34°41' E 135°22'0 0.0
2018-Feb-23 01:28N 34°41' E 135°22'1 2.6
2018-Feb-23 01:00N 34°40' E 135°23'1 2.2
2018-Feb-23 00:30N 34°40' E 135°24'2 3.9
2018-Feb-22 23:58N 34°41' E 135°22'0 0.0
2018-Feb-22 23:28N 34°41' E 135°22'0 0.0
2018-Feb-22 22:58N 34°41' E 135°22'0 0.0
2018-Feb-22 22:28N 34°41' E 135°22'3 5.8
2018-Feb-22 22:00N 34°39' E 135°25'3 5.1
2018-Feb-22 21:28N 34°39' E 135°28'0 0.0
2018-Feb-22 20:58N 34°39' E 135°28'0 0.0
2018-Feb-22 20:28N 34°39' E 135°28'0 0.0
2018-Feb-22 19:58N 34°39' E 135°28'0 0.0
2018-Feb-22 19:28N 34°39' E 135°28'0 0.0
2018-Feb-22 18:58N 34°39' E 135°28'0 0.0
2018-Feb-22 18:28N 34°39' E 135°28'0 0.0
2018-Feb-22 17:55N 34°39' E 135°28'0 0.0
2018-Feb-22 17:28N 34°39' E 135°28'0 0.0
2018-Feb-22 16:58N 34°39' E 135°28'0 0.0
2018-Feb-22 16:28N 34°39' E 135°28'0 0.0
2018-Feb-22 15:58N 34°39' E 135°28'0 0.0
2018-Feb-22 15:25N 34°39' E 135°28'0 0.0
2018-Feb-22 14:58N 34°39' E 135°28'0 0.0
2018-Feb-22 14:28N 34°39' E 135°28'0 0.0
2018-Feb-22 13:58N 34°39' E 135°28'0 0.0
2018-Feb-22 13:28N 34°39' E 135°28'0 0.0
2018-Feb-22 12:58N 34°39' E 135°28'0 0.0
2018-Feb-22 12:28N 34°39' E 135°28'0 0.0
2018-Feb-22 11:58N 34°39' E 135°28'0 0.0
2018-Feb-22 11:28N 34°39' E 135°28'0 0.0
2018-Feb-22 10:58N 34°39' E 135°28'0 0.0
2018-Feb-22 10:28N 34°39' E 135°28'0 0.0
2018-Feb-22 09:58N 34°39' E 135°28'0 0.0
2018-Feb-22 09:28N 34°39' E 135°28'0 0.0
2018-Feb-22 08:58N 34°39' E 135°28'0 0.0
2018-Feb-22 08:28N 34°39' E 135°28'0 0.0
2018-Feb-22 07:58N 34°39' E 135°28'0 0.0
2018-Feb-22 07:28N 34°39' E 135°28'0 0.0
2018-Feb-22 06:58N 34°39' E 135°28'0 0.0
2018-Feb-22 06:28N 34°39' E 135°28'0 0.0
2018-Feb-22 05:58N 34°39' E 135°28'0 0.0
2018-Feb-22 05:28N 34°39' E 135°28'0 0.0
2018-Feb-22 04:58N 34°39' E 135°28'0 0.0
2018-Feb-22 04:28N 34°39' E 135°28'0 0.0
2018-Feb-22 03:58N 34°39' E 135°28'0 0.0
2018-Feb-22 03:28N 34°39' E 135°28'0 0.0
2018-Feb-22 02:58N 34°39' E 135°28'0 0.8
2018-Feb-22 02:30N 34°39' E 135°28'4 7.3
2018-Feb-22 02:00N 34°40' E 135°23'2 4.7
2018-Feb-22 01:30N 34°41' E 135°21'1 2.6
2018-Feb-22 01:00N 34°40' E 135°20'3 4.9
2018-Feb-22 00:29N 34°39' E 135°17'0 0.0
2018-Feb-22 00:00N 34°39' E 135°17'0 0.0
2018-Feb-21 23:30N 34°39' E 135°17'1 2.1
2018-Feb-21 23:00N 34°39' E 135°18'3 5.9
2018-Feb-21 22:30N 34°40' E 135°22'0 0.8
2018-Feb-21 22:00N 34°41' E 135°21'4 8.6
2018-Feb-21 21:30N 34°39' E 135°26'1 2.9
2018-Feb-21 20:59N 34°39' E 135°28'0 0.0
2018-Feb-21 20:29N 34°39' E 135°28'0 0.0
2018-Feb-21 19:59N 34°39' E 135°28'0 0.0
2018-Feb-21 19:29N 34°39' E 135°28'0 0.0
2018-Feb-21 18:59N 34°39' E 135°28'0 0.0
2018-Feb-21 18:29N 34°39' E 135°28'0 0.0
2018-Feb-21 17:59N 34°39' E 135°28'0 0.0
2018-Feb-21 17:29N 34°39' E 135°28'0 0.0
2018-Feb-21 16:59N 34°39' E 135°28'0 0.0
2018-Feb-21 16:29N 34°39' E 135°28'0 0.0
2018-Feb-21 15:59N 34°39' E 135°28'0 0.0
2018-Feb-21 15:29N 34°39' E 135°28'0 0.0
2018-Feb-21 14:59N 34°39' E 135°28'0 0.0
2018-Feb-21 14:29N 34°39' E 135°28'0 0.0
2018-Feb-21 13:59N 34°39' E 135°28'0 0.0
2018-Feb-21 13:29N 34°39' E 135°28'0 0.0
2018-Feb-21 12:59N 34°39' E 135°28'0 0.0
2018-Feb-21 12:29N 34°39' E 135°28'0 0.0
2018-Feb-21 11:59N 34°39' E 135°28'0 0.0
2018-Feb-21 11:29N 34°39' E 135°28'0 0.0
2018-Feb-21 10:59N 34°39' E 135°28'0 0.0
2018-Feb-21 10:29N 34°39' E 135°28'0 0.0
2018-Feb-21 09:59N 34°39' E 135°28'0 0.0
2018-Feb-21 09:29N 34°39' E 135°28'0 0.0
2018-Feb-21 08:59N 34°39' E 135°28'2 3.4
2018-Feb-21 08:30N 34°39' E 135°26'4 8.5
2018-Feb-21 08:00N 34°41' E 135°21'1 1.8
2018-Feb-21 07:30N 34°41' E 135°22'0 0.0
2018-Feb-21 06:58N 34°41' E 135°22'0 0.0
2018-Feb-21 06:28N 34°41' E 135°22'0 0.0
2018-Feb-21 05:55N 34°41' E 135°22'0 0.0
2018-Feb-21 05:28N 34°41' E 135°22'0 0.0
2018-Feb-21 04:58N 34°41' E 135°22'0 0.0
2018-Feb-21 04:28N 34°41' E 135°22'0 0.0
2018-Feb-21 03:58N 34°41' E 135°22'0 0.0
2018-Feb-21 03:28N 34°41' E 135°22'0 0.0
2018-Feb-21 02:58N 34°41' E 135°22'0 0.0
2018-Feb-21 02:28N 34°41' E 135°22'0 0.0
2018-Feb-21 01:58N 34°41' E 135°22'0 0.0
2018-Feb-21 01:28N 34°41' E 135°22'0 0.0
2018-Feb-21 00:58N 34°41' E 135°22'0 0.0
2018-Feb-21 00:28N 34°41' E 135°22'0 0.0
2018-Feb-20 23:58N 34°41' E 135°22'0 0.0
2018-Feb-20 23:28N 34°41' E 135°22'0 0.2
2018-Feb-20 23:00N 34°41' E 135°23'1 2.8
2018-Feb-20 22:30N 34°41' E 135°21'1 1.6
2018-Feb-20 22:00N 34°40' E 135°22'4 8.7
2018-Feb-20 21:30N 34°39' E 135°27'1 2.5
2018-Feb-20 21:00N 34°39' E 135°28'0 0.0
2018-Feb-20 20:30N 34°39' E 135°28'0 0.0
2018-Feb-20 19:57N 34°39' E 135°28'0 0.0
2018-Feb-20 19:30N 34°39' E 135°28'0 0.0
2018-Feb-20 19:00N 34°39' E 135°28'0 0.0
2018-Feb-20 18:30N 34°39' E 135°28'0 0.0
2018-Feb-20 18:00N 34°39' E 135°28'0 0.0
2018-Feb-20 17:30N 34°39' E 135°28'0 0.0
2018-Feb-20 16:58N 34°39' E 135°28'0 0.0
2018-Feb-20 16:31N 34°39' E 135°28'0 0.0
2018-Feb-20 16:01N 34°39' E 135°28'0 0.0
2018-Feb-20 15:31N 34°39' E 135°28'0 0.0
2018-Feb-20 14:59N 34°39' E 135°28'0 0.0
2018-Feb-20 14:29N 34°39' E 135°28'0 0.0
2018-Feb-20 13:59N 34°39' E 135°28'0 0.0
2018-Feb-20 13:29N 34°39' E 135°28'0 0.0
2018-Feb-20 12:59N 34°39' E 135°28'0 0.0
2018-Feb-20 12:29N 34°39' E 135°28'0 0.0
2018-Feb-20 11:59N 34°39' E 135°28'0 0.0
2018-Feb-20 11:29N 34°39' E 135°28'0 0.0
2018-Feb-20 10:59N 34°39' E 135°28'0 0.0
2018-Feb-20 10:29N 34°39' E 135°28'0 0.0
2018-Feb-20 09:59N 34°39' E 135°28'0 0.0
2018-Feb-20 09:29N 34°39' E 135°28'0 0.0
2018-Feb-20 08:59N 34°39' E 135°28'0 0.0
2018-Feb-20 08:29N 34°39' E 135°28'0 0.0
2018-Feb-20 07:59N 34°39' E 135°28'2 4.8
2018-Feb-20 07:30N 34°39' E 135°25'3 6.3
2018-Feb-20 06:59N 34°41' E 135°22'0 0.0
2018-Feb-20 06:29N 34°41' E 135°22'0 0.0
2018-Feb-20 05:59N 34°41' E 135°22'0 0.0
2018-Feb-20 05:29N 34°41' E 135°22'0 0.0
2018-Feb-20 04:59N 34°41' E 135°22'0 0.0
2018-Feb-20 04:29N 34°41' E 135°22'0 0.0
2018-Feb-20 03:59N 34°41' E 135°22'0 0.0
2018-Feb-20 03:29N 34°41' E 135°22'0 0.0
2018-Feb-20 02:59N 34°41' E 135°22'0 0.0
2018-Feb-20 02:29N 34°41' E 135°22'0 0.0
2018-Feb-20 01:59N 34°41' E 135°22'1 2.4
2018-Feb-20 01:30N 34°41' E 135°21'2 3.5
2018-Feb-20 01:00N 34°40' E 135°19'2 3.7
2018-Feb-20 00:28N 34°39' E 135°17'0 0.0
2018-Feb-19 23:58N 34°39' E 135°17'0 0.0
2018-Feb-19 23:28N 34°39' E 135°17'1 2.0
2018-Feb-19 23:00N 34°40' E 135°18'3 6.2
2018-Feb-19 22:30N 34°40' E 135°22'0 0.4
2018-Feb-19 22:00N 34°41' E 135°22'4 8.5
2018-Feb-19 21:30N 34°39' E 135°26'1 2.8
2018-Feb-19 20:59N 34°39' E 135°28'0 0.0
2018-Feb-19 20:29N 34°39' E 135°28'0 0.0
2018-Feb-19 19:59N 34°39' E 135°28'0 0.0
2018-Feb-19 19:30N 34°39' E 135°28'0 0.0
2018-Feb-19 19:00N 34°39' E 135°28'0 0.0
2018-Feb-19 18:30N 34°39' E 135°28'0 0.0
2018-Feb-19 18:00N 34°39' E 135°28'0 0.0
2018-Feb-19 17:30N 34°39' E 135°28'0 0.0
2018-Feb-19 17:00N 34°39' E 135°28'0 0.0
2018-Feb-19 16:30N 34°39' E 135°28'0 0.0
2018-Feb-19 16:00N 34°39' E 135°28'0 0.0
2018-Feb-19 15:30N 34°39' E 135°28'0 0.0
2018-Feb-19 15:00N 34°39' E 135°28'0 0.0
2018-Feb-19 14:30N 34°39' E 135°28'0 0.0
2018-Feb-19 14:00N 34°39' E 135°28'0 0.0
2018-Feb-19 13:30N 34°39' E 135°28'0 0.0
2018-Feb-19 13:00N 34°39' E 135°28'0 0.0
2018-Feb-19 12:30N 34°39' E 135°28'0 0.0
2018-Feb-19 12:00N 34°39' E 135°28'0 0.0
2018-Feb-19 11:30N 34°39' E 135°28'0 0.0
2018-Feb-19 11:00N 34°39' E 135°28'0 0.0
2018-Feb-19 10:30N 34°39' E 135°28'0 0.0
2018-Feb-19 10:00N 34°39' E 135°28'0 0.0
2018-Feb-19 09:30N 34°39' E 135°28'0 0.0
2018-Feb-19 09:00N 34°39' E 135°28'0 0.0
2018-Feb-19 08:24N 34°39' E 135°28'0 0.0
2018-Feb-19 08:00N 34°39' E 135°28'3 5.8
2018-Feb-19 07:29N 34°39' E 135°24'3 6.9
2018-Feb-19 07:00N 34°41' E 135°21'1 2.5
2018-Feb-19 06:30N 34°41' E 135°22'0 0.0
2018-Feb-19 06:00N 34°41' E 135°22'0 0.0
2018-Feb-19 05:30N 34°41' E 135°22'0 0.0
2018-Feb-19 05:00N 34°41' E 135°22'0 0.0
2018-Feb-19 04:30N 34°41' E 135°22'0 0.0
2018-Feb-19 04:00N 34°41' E 135°22'0 0.0
2018-Feb-19 03:30N 34°41' E 135°22'0 0.0
2018-Feb-19 03:00N 34°41' E 135°22'0 0.0
2018-Feb-19 02:30N 34°41' E 135°22'0 0.0
2018-Feb-19 02:00N 34°41' E 135°22'0 0.0
2018-Feb-19 01:30N 34°41' E 135°22'0 0.0
2018-Feb-19 01:00N 34°41' E 135°22'0 0.0
2018-Feb-19 00:30N 34°41' E 135°22'0 0.0
2018-Feb-19 00:00N 34°41' E 135°22'0 0.0
2018-Feb-18 23:30N 34°41' E 135°22'0 0.2
2018-Feb-18 23:00N 34°41' E 135°23'2 3.1
2018-Feb-18 22:31N 34°41' E 135°21'1 1.5
2018-Feb-18 22:01N 34°41' E 135°22'4 8.7
2018-Feb-18 21:30N 34°39' E 135°26'1 2.5
2018-Feb-18 20:58N 34°39' E 135°28'0 0.0
2018-Feb-18 20:28N 34°39' E 135°28'0 0.0
2018-Feb-18 19:58N 34°39' E 135°28'0 0.0
2018-Feb-18 19:28N 34°39' E 135°28'0 0.0
2018-Feb-18 18:55N 34°39' E 135°28'0 0.0
2018-Feb-18 18:28N 34°39' E 135°28'0 0.0
2018-Feb-18 17:58N 34°39' E 135°28'0 0.0
2018-Feb-18 17:28N 34°39' E 135°28'0 0.0
2018-Feb-18 16:58N 34°39' E 135°28'0 0.0
2018-Feb-18 16:28N 34°39' E 135°28'0 0.0
2018-Feb-18 15:58N 34°39' E 135°28'0 0.0
2018-Feb-18 15:28N 34°39' E 135°28'0 0.0
2018-Feb-18 14:58N 34°39' E 135°28'0 0.0
2018-Feb-18 14:28N 34°39' E 135°28'0 0.0
2018-Feb-18 13:58N 34°39' E 135°28'0 0.0
2018-Feb-18 13:28N 34°39' E 135°28'0 0.0
2018-Feb-18 12:58N 34°39' E 135°28'0 0.0
2018-Feb-18 12:25N 34°39' E 135°28'0 0.0
2018-Feb-18 11:58N 34°39' E 135°28'0 0.0
2018-Feb-18 11:28N 34°39' E 135°28'0 0.0
2018-Feb-18 10:58N 34°39' E 135°28'0 0.0
2018-Feb-18 10:28N 34°39' E 135°28'0 0.0
2018-Feb-18 09:58N 34°39' E 135°28'0 0.0
2018-Feb-18 09:28N 34°39' E 135°28'0 0.0
2018-Feb-18 08:58N 34°39' E 135°28'0 0.0
2018-Feb-18 08:28N 34°39' E 135°28'0 0.0
2018-Feb-18 07:58N 34°39' E 135°28'0 0.0
2018-Feb-18 07:28N 34°39' E 135°28'0 0.0
2018-Feb-18 06:58N 34°39' E 135°28'0 0.0
2018-Feb-18 06:28N 34°39' E 135°28'0 0.0
2018-Feb-18 05:58N 34°39' E 135°28'0 0.0
2018-Feb-18 05:28N 34°39' E 135°28'0 0.0
2018-Feb-18 04:58N 34°39' E 135°28'0 0.0
2018-Feb-18 04:28N 34°39' E 135°28'0 0.0
2018-Feb-18 03:58N 34°39' E 135°28'0 0.0
2018-Feb-18 03:28N 34°39' E 135°28'0 0.0
2018-Feb-18 02:58N 34°39' E 135°28'0 0.0
2018-Feb-18 02:28N 34°39' E 135°28'0 0.0
2018-Feb-18 01:58N 34°39' E 135°28'0 0.0
2018-Feb-18 01:26N 34°39' E 135°28'0 0.0
2018-Feb-18 00:59N 34°39' E 135°28'0 0.0
2018-Feb-18 00:29N 34°39' E 135°28'0 0.0
2018-Feb-18 00:00N 34°39' E 135°28'0 0.0
2018-Feb-17 23:28N 34°39' E 135°28'0 0.0
2018-Feb-17 22:58N 34°39' E 135°28'0 0.0
2018-Feb-17 22:28N 34°39' E 135°28'0 0.0
2018-Feb-17 21:58N 34°39' E 135°28'0 0.0
2018-Feb-17 21:28N 34°39' E 135°28'0 0.0
2018-Feb-17 20:58N 34°39' E 135°28'0 0.0
2018-Feb-17 20:28N 34°39' E 135°28'0 0.0
2018-Feb-17 19:58N 34°39' E 135°28'0 0.0
2018-Feb-17 19:28N 34°39' E 135°28'0 0.0
2018-Feb-17 18:58N 34°39' E 135°28'0 0.0
2018-Feb-17 18:28N 34°39' E 135°28'0 0.0
2018-Feb-17 17:58N 34°39' E 135°28'0 0.0
2018-Feb-17 17:28N 34°39' E 135°28'0 0.0
2018-Feb-17 16:58N 34°39' E 135°28'0 0.0
2018-Feb-17 16:28N 34°39' E 135°28'0 0.0
2018-Feb-17 15:58N 34°39' E 135°28'0 0.0
2018-Feb-17 15:28N 34°39' E 135°28'0 0.0
2018-Feb-17 14:58N 34°39' E 135°28'0 0.0
2018-Feb-17 14:28N 34°39' E 135°28'0 0.0
2018-Feb-17 13:58N 34°39' E 135°28'0 0.0
2018-Feb-17 13:28N 34°39' E 135°28'0 0.0
2018-Feb-17 12:58N 34°39' E 135°28'0 0.0
2018-Feb-17 12:28N 34°39' E 135°28'0 0.0
2018-Feb-17 11:58N 34°39' E 135°28'0 0.0
2018-Feb-17 11:25N 34°39' E 135°28'0 0.0
2018-Feb-17 10:58N 34°39' E 135°28'0 0.0
2018-Feb-17 10:28N 34°39' E 135°28'0 0.0
2018-Feb-17 09:58N 34°39' E 135°28'0 0.0
2018-Feb-17 09:28N 34°39' E 135°28'0 0.0
2018-Feb-17 08:58N 34°39' E 135°28'0 0.0
2018-Feb-17 08:28N 34°39' E 135°28'0 0.0
2018-Feb-17 07:58N 34°39' E 135°28'0 0.0
2018-Feb-17 07:28N 34°39' E 135°28'0 0.0
2018-Feb-17 06:58N 34°39' E 135°28'0 0.0
2018-Feb-17 06:28N 34°39' E 135°28'0 0.0
2018-Feb-17 05:58N 34°39' E 135°28'0 0.0
2018-Feb-17 05:28N 34°39' E 135°28'0 0.0
2018-Feb-17 04:58N 34°39' E 135°28'0 0.0
2018-Feb-17 04:28N 34°39' E 135°28'0 0.0
2018-Feb-17 03:58N 34°39' E 135°28'0 0.0
2018-Feb-17 03:28N 34°39' E 135°28'0 0.0
2018-Feb-17 02:58N 34°39' E 135°28'0 0.0
2018-Feb-17 02:28N 34°39' E 135°28'0 0.0
2018-Feb-17 01:58N 34°39' E 135°28'0 0.0
2018-Feb-17 01:28N 34°39' E 135°28'0 0.0
2018-Feb-17 00:58N 34°39' E 135°28'0 0.0
2018-Feb-17 00:28N 34°39' E 135°28'0 0.0
2018-Feb-16 23:58N 34°39' E 135°28'0 0.0
2018-Feb-16 23:28N 34°39' E 135°28'0 0.0
2018-Feb-16 22:58N 34°39' E 135°28'0 0.0
2018-Feb-16 22:28N 34°39' E 135°28'0 0.0
2018-Feb-16 21:58N 34°39' E 135°28'0 0.0
2018-Feb-16 21:29N 34°39' E 135°28'0 0.0
2018-Feb-16 20:59N 34°39' E 135°28'0 0.0
2018-Feb-16 20:29N 34°39' E 135°28'0 0.0
2018-Feb-16 19:59N 34°39' E 135°28'0 0.0
2018-Feb-16 19:29N 34°39' E 135°28'0 0.0
2018-Feb-16 18:59N 34°39' E 135°28'0 0.0
2018-Feb-16 18:29N 34°39' E 135°28'0 0.0
2018-Feb-16 17:59N 34°39' E 135°28'0 0.0
2018-Feb-16 17:29N 34°39' E 135°28'0 0.0
2018-Feb-16 16:59N 34°39' E 135°28'0 0.0
2018-Feb-16 16:23N 34°39' E 135°28'0 0.0
2018-Feb-16 15:59N 34°39' E 135°28'0 0.0
2018-Feb-16 15:29N 34°39' E 135°28'0 0.0
2018-Feb-16 14:59N 34°39' E 135°28'0 0.0
2018-Feb-16 14:29N 34°39' E 135°28'0 0.0
2018-Feb-16 13:59N 34°39' E 135°28'0 0.0
2018-Feb-16 13:29N 34°39' E 135°28'0 0.0
2018-Feb-16 12:59N 34°39' E 135°28'0 0.0
2018-Feb-16 12:29N 34°39' E 135°28'0 0.0
2018-Feb-16 11:59N 34°39' E 135°28'0 0.0
2018-Feb-16 11:29N 34°39' E 135°28'0 0.0
2018-Feb-16 11:00N 34°39' E 135°28'0 0.0
2018-Feb-16 10:29N 34°39' E 135°28'0 0.0
2018-Feb-16 10:00N 34°39' E 135°28'0 0.0
2018-Feb-16 09:30N 34°39' E 135°28'0 0.0
2018-Feb-16 08:59N 34°39' E 135°28'0 0.0
2018-Feb-16 08:29N 34°39' E 135°28'0 0.0
2018-Feb-16 08:00N 34°39' E 135°28'2 5.0
2018-Feb-16 07:30N 34°39' E 135°25'3 5.8
2018-Feb-16 07:00N 34°41' E 135°22'0 0.0
2018-Feb-16 06:30N 34°41' E 135°22'0 0.0
2018-Feb-16 06:00N 34°41' E 135°22'0 0.0
2018-Feb-16 05:30N 34°41' E 135°22'0 0.0
2018-Feb-16 04:55N 34°41' E 135°22'0 0.0
2018-Feb-16 04:28N 34°41' E 135°22'0 0.0
2018-Feb-16 04:00N 34°41' E 135°22'0 0.0
2018-Feb-16 03:27N 34°41' E 135°22'0 0.0
2018-Feb-16 02:58N 34°41' E 135°22'0 0.0
2018-Feb-16 02:28N 34°41' E 135°22'1 2.6
2018-Feb-16 02:00N 34°41' E 135°21'1 2.1
2018-Feb-16 01:30N 34°40' E 135°20'3 5.6
2018-Feb-16 01:00N 34°39' E 135°17'0 0.0
2018-Feb-16 00:30N 34°39' E 135°17'0 0.0
2018-Feb-16 00:00N 34°39' E 135°17'0 0.0
2018-Feb-15 23:30N 34°39' E 135°17'2 3.3
2018-Feb-15 23:00N 34°40' E 135°19'2 4.4
2018-Feb-15 22:30N 34°41' E 135°21'0 0.7
2018-Feb-15 22:01N 34°41' E 135°22'4 8.7
2018-Feb-15 21:31N 34°39' E 135°26'1 2.6
2018-Feb-15 20:58N 34°39' E 135°28'0 0.0
2018-Feb-15 20:28N 34°39' E 135°28'0 0.0
2018-Feb-15 19:58N 34°39' E 135°28'0 0.0
2018-Feb-15 19:28N 34°39' E 135°28'0 0.0
2018-Feb-15 18:58N 34°39' E 135°28'0 0.0
2018-Feb-15 18:28N 34°39' E 135°28'0 0.0
2018-Feb-15 17:58N 34°39' E 135°28'0 0.0
2018-Feb-15 17:28N 34°39' E 135°28'0 0.0
2018-Feb-15 16:58N 34°39' E 135°28'0 0.0
2018-Feb-15 16:28N 34°39' E 135°28'0 0.0
2018-Feb-15 15:58N 34°39' E 135°28'0 0.0
2018-Feb-15 15:28N 34°39' E 135°28'0 0.0
2018-Feb-15 14:55N 34°39' E 135°28'0 0.0
2018-Feb-15 14:28N 34°39' E 135°28'0 0.0
2018-Feb-15 13:58N 34°39' E 135°28'0 0.0
2018-Feb-15 13:28N 34°39' E 135°28'0 0.0
2018-Feb-15 12:58N 34°39' E 135°28'0 0.0
2018-Feb-15 12:28N 34°39' E 135°28'0 0.0
2018-Feb-15 11:58N 34°39' E 135°28'0 0.0
2018-Feb-15 11:28N 34°39' E 135°28'0 0.0
2018-Feb-15 10:58N 34°39' E 135°28'0 0.0
2018-Feb-15 10:28N 34°39' E 135°28'0 0.0
2018-Feb-15 09:58N 34°39' E 135°28'0 0.0
2018-Feb-15 09:28N 34°39' E 135°28'0 0.0
2018-Feb-15 08:58N 34°39' E 135°28'0 0.0
2018-Feb-15 08:28N 34°39' E 135°28'0 0.0
2018-Feb-15 07:58N 34°39' E 135°28'0 0.0
2018-Feb-15 07:28N 34°39' E 135°28'0 0.0
2018-Feb-15 06:58N 34°39' E 135°28'0 0.0
2018-Feb-15 06:30N 34°39' E 135°28'3 5.4
2018-Feb-15 06:00N 34°39' E 135°25'3 7.0
2018-Feb-15 05:30N 34°41' E 135°21'1 2.3
2018-Feb-15 05:00N 34°41' E 135°22'0 0.0
2018-Feb-15 04:30N 34°41' E 135°22'0 0.0
2018-Feb-15 04:00N 34°41' E 135°22'0 0.0
2018-Feb-15 03:30N 34°41' E 135°22'0 0.0
2018-Feb-15 03:00N 34°41' E 135°22'0 0.0
2018-Feb-15 02:30N 34°41' E 135°22'0 0.0
2018-Feb-15 02:00N 34°41' E 135°22'0 0.0
2018-Feb-15 01:27N 34°41' E 135°22'0 0.0
2018-Feb-15 01:00N 34°41' E 135°22'0 0.0
2018-Feb-15 00:31N 34°41' E 135°22'0 0.0
2018-Feb-15 00:00N 34°41' E 135°22'0 0.0
2018-Feb-14 23:30N 34°41' E 135°22'0 0.5
2018-Feb-14 23:00N 34°41' E 135°22'1 2.3
2018-Feb-14 22:29N 34°41' E 135°21'1 1.1
2018-Feb-14 22:00N 34°41' E 135°21'4 8.6
2018-Feb-14 21:30N 34°39' E 135°26'2 2.8
2018-Feb-14 20:58N 34°39' E 135°28'0 0.0
2018-Feb-14 20:28N 34°39' E 135°28'0 0.0
2018-Feb-14 19:58N 34°39' E 135°28'0 0.0
2018-Feb-14 19:28N 34°39' E 135°28'0 0.0
2018-Feb-14 18:55N 34°39' E 135°28'0 0.0
2018-Feb-14 18:28N 34°39' E 135°28'0 0.0
2018-Feb-14 17:58N 34°39' E 135°28'0 0.0
2018-Feb-14 17:28N 34°39' E 135°28'0 0.0
2018-Feb-14 16:59N 34°39' E 135°28'0 0.0
2018-Feb-14 16:29N 34°39' E 135°28'0 0.0
2018-Feb-14 15:59N 34°39' E 135°28'0 0.0
2018-Feb-14 15:29N 34°39' E 135°28'0 0.0
2018-Feb-14 14:59N 34°39' E 135°28'0 0.0
2018-Feb-14 14:29N 34°39' E 135°28'0 0.0
2018-Feb-14 13:59N 34°39' E 135°28'0 0.0
2018-Feb-14 13:29N 34°39' E 135°28'0 0.0
2018-Feb-14 12:59N 34°39' E 135°28'0 0.0
2018-Feb-14 12:29N 34°39' E 135°28'0 0.0
2018-Feb-14 11:59N 34°39' E 135°28'0 0.0
2018-Feb-14 11:29N 34°39' E 135°28'0 0.0
2018-Feb-14 10:59N 34°39' E 135°28'0 0.0
2018-Feb-14 10:29N 34°39' E 135°28'0 0.0
2018-Feb-14 09:59N 34°39' E 135°28'0 0.0
2018-Feb-14 09:29N 34°39' E 135°28'0 0.0
2018-Feb-14 08:59N 34°39' E 135°28'0 0.0
2018-Feb-14 08:26N 34°39' E 135°28'0 0.0
2018-Feb-14 07:59N 34°39' E 135°28'0 0.0
2018-Feb-14 07:29N 34°39' E 135°28'1 2.2
2018-Feb-14 06:59N 34°39' E 135°27'4 8.1
2018-Feb-14 06:30N 34°40' E 135°23'1 1.1
2018-Feb-14 05:58N 34°41' E 135°22'0 0.0
2018-Feb-14 05:28N 34°41' E 135°22'  
Track history (hours):
 
Tides and Currents Weather Stations Pressure Air Temp Water Temp Dewpoint Dewpoint Depression Visibility Wind Speed Wind Dir Waves Ship Positions

Chiyomaru No.28

Last reported at 2018-Feb-24 05:28 UTC. Time now 2018-Feb-24 06:00 UTC.
Position N 34°39' E 135°28'.

Length 18 m; draft 5 m.

Type: Tug. MMSI: 431000432.

Date/timePositionNaut miles runAvg speedWind from/ knotsBaromVisibWave heightAir tempDewpointWater temp
2018-Feb-24 05:28N 34°39' E 135°28'0 0.0
2018-Feb-24 04:58N 34°39' E 135°28'0 0.0
2018-Feb-24 04:28N 34°39' E 135°28'0 0.0
2018-Feb-24 03:58N 34°39' E 135°28'0 0.0
2018-Feb-24 03:28N 34°39' E 135°28'0 0.0
2018-Feb-24 02:58N 34°39' E 135°28'0 0.0
2018-Feb-24 02:28N 34°39' E 135°28'0 0.0
2018-Feb-24 01:58N 34°39' E 135°28'0 0.0
2018-Feb-24 01:28N 34°39' E 135°28'0 0.0
2018-Feb-24 00:58N 34°39' E 135°28'0 0.0
2018-Feb-24 00:28N 34°39' E 135°28'0 0.0
2018-Feb-23 23:58N 34°39' E 135°28'0 0.0
2018-Feb-23 23:28N 34°39' E 135°28'0 0.0
2018-Feb-23 22:58N 34°39' E 135°28'0 0.0
2018-Feb-23 22:28N 34°39' E 135°28'0 0.0
2018-Feb-23 21:58N 34°39' E 135°28'0 0.0
2018-Feb-23 21:28N 34°39' E 135°28'0 0.0
2018-Feb-23 20:58N 34°39' E 135°28'0 0.0
2018-Feb-23 20:28N 34°39' E 135°28'0 0.0
2018-Feb-23 19:58N 34°39' E 135°28'0 0.0
2018-Feb-23 19:28N 34°39' E 135°28'0 0.0
2018-Feb-23 18:58N 34°39' E 135°28'0 0.0
2018-Feb-23 18:28N 34°39' E 135°28'0 0.0
2018-Feb-23 17:58N 34°39' E 135°28'0 0.0
2018-Feb-23 17:28N 34°39' E 135°28'0 0.0
2018-Feb-23 16:58N 34°39' E 135°28'0 0.0
2018-Feb-23 16:28N 34°39' E 135°28'0 0.0
2018-Feb-23 15:58N 34°39' E 135°28'0 0.0
2018-Feb-23 15:28N 34°39' E 135°28'0 0.0
2018-Feb-23 14:58N 34°39' E 135°28'0 0.0
2018-Feb-23 14:28N 34°39' E 135°28'0 0.0
2018-Feb-23 13:58N 34°39' E 135°28'0 0.0
2018-Feb-23 13:28N 34°39' E 135°28'0 0.0
2018-Feb-23 12:58N 34°39' E 135°28'0 0.0
2018-Feb-23 12:28N 34°39' E 135°28'0 0.0
2018-Feb-23 11:58N 34°39' E 135°28'0 0.0
2018-Feb-23 11:28N 34°39' E 135°28'0 0.0
2018-Feb-23 10:58N 34°39' E 135°28'0 0.0
2018-Feb-23 10:28N 34°39' E 135°28'0 0.0
2018-Feb-23 09:58N 34°39' E 135°28'0 0.0
2018-Feb-23 09:28N 34°39' E 135°28'0 0.0
2018-Feb-23 08:58N 34°39' E 135°28'0 0.0
2018-Feb-23 08:28N 34°39' E 135°28'0 0.0
2018-Feb-23 07:58N 34°39' E 135°28'2 5.1
2018-Feb-23 07:29N 34°39' E 135°25'3 5.8
2018-Feb-23 06:57N 34°41' E 135°22'0 0.0
2018-Feb-23 06:30N 34°41' E 135°22'0 0.0
2018-Feb-23 05:58N 34°41' E 135°22'0 0.0
2018-Feb-23 05:28N 34°41' E 135°22'0 0.0
2018-Feb-23 04:59N 34°41' E 135°22'0 0.0
2018-Feb-23 04:30N 34°41' E 135°22'0 0.0
2018-Feb-23 04:01N 34°41' E 135°22'0 0.0
2018-Feb-23 03:28N 34°41' E 135°22'0 0.0
2018-Feb-23 02:58N 34°41' E 135°22'0 0.0
2018-Feb-23 02:30N 34°41' E 135°22'0 0.0
2018-Feb-23 01:58N 34°41' E 135°22'0 0.0
2018-Feb-23 01:28N 34°41' E 135°22'1 2.6
2018-Feb-23 01:00N 34°40' E 135°23'1 2.2
2018-Feb-23 00:30N 34°40' E 135°24'2 3.9
2018-Feb-22 23:58N 34°41' E 135°22'0 0.0
2018-Feb-22 23:28N 34°41' E 135°22'0 0.0
2018-Feb-22 22:58N 34°41' E 135°22'0 0.0
2018-Feb-22 22:28N 34°41' E 135°22'3 5.8
2018-Feb-22 22:00N 34°39' E 135°25'3 5.1
2018-Feb-22 21:28N 34°39' E 135°28'0 0.0
2018-Feb-22 20:58N 34°39' E 135°28'0 0.0
2018-Feb-22 20:28N 34°39' E 135°28'0 0.0
2018-Feb-22 19:58N 34°39' E 135°28'0 0.0
2018-Feb-22 19:28N 34°39' E 135°28'0 0.0
2018-Feb-22 18:58N 34°39' E 135°28'0 0.0
2018-Feb-22 18:28N 34°39' E 135°28'0 0.0
2018-Feb-22 17:55N 34°39' E 135°28'0 0.0
2018-Feb-22 17:28N 34°39' E 135°28'0 0.0
2018-Feb-22 16:58N 34°39' E 135°28'0 0.0
2018-Feb-22 16:28N 34°39' E 135°28'0 0.0
2018-Feb-22 15:58N 34°39' E 135°28'0 0.0
2018-Feb-22 15:25N 34°39' E 135°28'0 0.0
2018-Feb-22 14:58N 34°39' E 135°28'0 0.0
2018-Feb-22 14:28N 34°39' E 135°28'0 0.0
2018-Feb-22 13:58N 34°39' E 135°28'0 0.0
2018-Feb-22 13:28N 34°39' E 135°28'0 0.0
2018-Feb-22 12:58N 34°39' E 135°28'0 0.0
2018-Feb-22 12:28N 34°39' E 135°28'0 0.0
2018-Feb-22 11:58N 34°39' E 135°28'0 0.0
2018-Feb-22 11:28N 34°39' E 135°28'0 0.0
2018-Feb-22 10:58N 34°39' E 135°28'0 0.0
2018-Feb-22 10:28N 34°39' E 135°28'0 0.0
2018-Feb-22 09:58N 34°39' E 135°28'0 0.0
2018-Feb-22 09:28N 34°39' E 135°28'0 0.0
2018-Feb-22 08:58N 34°39' E 135°28'0 0.0
2018-Feb-22 08:28N 34°39' E 135°28'0 0.0
2018-Feb-22 07:58N 34°39' E 135°28'0 0.0
2018-Feb-22 07:28N 34°39' E 135°28'0 0.0
2018-Feb-22 06:58N 34°39' E 135°28'0 0.0
2018-Feb-22 06:28N 34°39' E 135°28'0 0.0
2018-Feb-22 05:58N 34°39' E 135°28'0 0.0
2018-Feb-22 05:28N 34°39' E 135°28'0 0.0
2018-Feb-22 04:58N 34°39' E 135°28'0 0.0
2018-Feb-22 04:28N 34°39' E 135°28'0 0.0
2018-Feb-22 03:58N 34°39' E 135°28'0 0.0
2018-Feb-22 03:28N 34°39' E 135°28'0 0.0
2018-Feb-22 02:58N 34°39' E 135°28'0 0.8
2018-Feb-22 02:30N 34°39' E 135°28'4 7.3
2018-Feb-22 02:00N 34°40' E 135°23'2 4.7
2018-Feb-22 01:30N 34°41' E 135°21'1 2.6
2018-Feb-22 01:00N 34°40' E 135°20'3 4.9
2018-Feb-22 00:29N 34°39' E 135°17'0 0.0
2018-Feb-22 00:00N 34°39' E 135°17'0 0.0
2018-Feb-21 23:30N 34°39' E 135°17'1 2.1
2018-Feb-21 23:00N 34°39' E 135°18'3 5.9
2018-Feb-21 22:30N 34°40' E 135°22'0 0.8
2018-Feb-21 22:00N 34°41' E 135°21'4 8.6
2018-Feb-21 21:30N 34°39' E 135°26'1 2.9
2018-Feb-21 20:59N 34°39' E 135°28'0 0.0
2018-Feb-21 20:29N 34°39' E 135°28'0 0.0
2018-Feb-21 19:59N 34°39' E 135°28'0 0.0
2018-Feb-21 19:29N 34°39' E 135°28'0 0.0
2018-Feb-21 18:59N 34°39' E 135°28'0 0.0
2018-Feb-21 18:29N 34°39' E 135°28'0 0.0
2018-Feb-21 17:59N 34°39' E 135°28'0 0.0
2018-Feb-21 17:29N 34°39' E 135°28'0 0.0
2018-Feb-21 16:59N 34°39' E 135°28'0 0.0
2018-Feb-21 16:29N 34°39' E 135°28'0 0.0
2018-Feb-21 15:59N 34°39' E 135°28'0 0.0
2018-Feb-21 15:29N 34°39' E 135°28'0 0.0
2018-Feb-21 14:59N 34°39' E 135°28'0 0.0
2018-Feb-21 14:29N 34°39' E 135°28'0 0.0
2018-Feb-21 13:59N 34°39' E 135°28'0 0.0
2018-Feb-21 13:29N 34°39' E 135°28'0 0.0
2018-Feb-21 12:59N 34°39' E 135°28'0 0.0
2018-Feb-21 12:29N 34°39' E 135°28'0 0.0
2018-Feb-21 11:59N 34°39' E 135°28'0 0.0
2018-Feb-21 11:29N 34°39' E 135°28'0 0.0
2018-Feb-21 10:59N 34°39' E 135°28'0 0.0
2018-Feb-21 10:29N 34°39' E 135°28'0 0.0
2018-Feb-21 09:59N 34°39' E 135°28'0 0.0
2018-Feb-21 09:29N 34°39' E 135°28'0 0.0
2018-Feb-21 08:59N 34°39' E 135°28'2 3.4
2018-Feb-21 08:30N 34°39' E 135°26'4 8.5
2018-Feb-21 08:00N 34°41' E 135°21'1 1.8
2018-Feb-21 07:30N 34°41' E 135°22'0 0.0
2018-Feb-21 06:58N 34°41' E 135°22'0 0.0
2018-Feb-21 06:28N 34°41' E 135°22'0 0.0
2018-Feb-21 05:55N 34°41' E 135°22'0 0.0
2018-Feb-21 05:28N 34°41' E 135°22'0 0.0
2018-Feb-21 04:58N 34°41' E 135°22'0 0.0
2018-Feb-21 04:28N 34°41' E 135°22'0 0.0
2018-Feb-21 03:58N 34°41' E 135°22'0 0.0
2018-Feb-21 03:28N 34°41' E 135°22'0 0.0
2018-Feb-21 02:58N 34°41' E 135°22'0 0.0
2018-Feb-21 02:28N 34°41' E 135°22'0 0.0
2018-Feb-21 01:58N 34°41' E 135°22'0 0.0
2018-Feb-21 01:28N 34°41' E 135°22'0 0.0
2018-Feb-21 00:58N 34°41' E 135°22'0 0.0
2018-Feb-21 00:28N 34°41' E 135°22'0 0.0
2018-Feb-20 23:58N 34°41' E 135°22'0 0.0
2018-Feb-20 23:28N 34°41' E 135°22'0 0.2
2018-Feb-20 23:00N 34°41' E 135°23'1 2.8
2018-Feb-20 22:30N 34°41' E 135°21'1 1.6
2018-Feb-20 22:00N 34°40' E 135°22'4 8.7
2018-Feb-20 21:30N 34°39' E 135°27'1 2.5
2018-Feb-20 21:00N 34°39' E 135°28'0 0.0
2018-Feb-20 20:30N 34°39' E 135°28'0 0.0
2018-Feb-20 19:57N 34°39' E 135°28'0 0.0
2018-Feb-20 19:30N 34°39' E 135°28'0 0.0
2018-Feb-20 19:00N 34°39' E 135°28'0 0.0
2018-Feb-20 18:30N 34°39' E 135°28'0 0.0
2018-Feb-20 18:00N 34°39' E 135°28'0 0.0
2018-Feb-20 17:30N 34°39' E 135°28'0 0.0
2018-Feb-20 16:58N 34°39' E 135°28'0 0.0
2018-Feb-20 16:31N 34°39' E 135°28'0 0.0
2018-Feb-20 16:01N 34°39' E 135°28'0 0.0
2018-Feb-20 15:31N 34°39' E 135°28'0 0.0
2018-Feb-20 14:59N 34°39' E 135°28'0 0.0
2018-Feb-20 14:29N 34°39' E 135°28'0 0.0
2018-Feb-20 13:59N 34°39' E 135°28'0 0.0
2018-Feb-20 13:29N 34°39' E 135°28'0 0.0
2018-Feb-20 12:59N 34°39' E 135°28'0 0.0
2018-Feb-20 12:29N 34°39' E 135°28'0 0.0
2018-Feb-20 11:59N 34°39' E 135°28'0 0.0
2018-Feb-20 11:29N 34°39' E 135°28'0 0.0
2018-Feb-20 10:59N 34°39' E 135°28'0 0.0
2018-Feb-20 10:29N 34°39' E 135°28'0 0.0
2018-Feb-20 09:59N 34°39' E 135°28'0 0.0
2018-Feb-20 09:29N 34°39' E 135°28'0 0.0
2018-Feb-20 08:59N 34°39' E 135°28'0 0.0
2018-Feb-20 08:29N 34°39' E 135°28'0 0.0
2018-Feb-20 07:59N 34°39' E 135°28'2 4.8
2018-Feb-20 07:30N 34°39' E 135°25'3 6.3
2018-Feb-20 06:59N 34°41' E 135°22'0 0.0
2018-Feb-20 06:29N 34°41' E 135°22'0 0.0
2018-Feb-20 05:59N 34°41' E 135°22'0 0.0
2018-Feb-20 05:29N 34°41' E 135°22'0 0.0
2018-Feb-20 04:59N 34°41' E 135°22'0 0.0
2018-Feb-20 04:29N 34°41' E 135°22'0 0.0
2018-Feb-20 03:59N 34°41' E 135°22'0 0.0
2018-Feb-20 03:29N 34°41' E 135°22'0 0.0
2018-Feb-20 02:59N 34°41' E 135°22'0 0.0
2018-Feb-20 02:29N 34°41' E 135°22'0 0.0
2018-Feb-20 01:59N 34°41' E 135°22'1 2.4
2018-Feb-20 01:30N 34°41' E 135°21'2 3.5
2018-Feb-20 01:00N 34°40' E 135°19'2 3.7
2018-Feb-20 00:28N 34°39' E 135°17'0 0.0
2018-Feb-19 23:58N 34°39' E 135°17'0 0.0
2018-Feb-19 23:28N 34°39' E 135°17'1 2.0
2018-Feb-19 23:00N 34°40' E 135°18'3 6.2
2018-Feb-19 22:30N 34°40' E 135°22'0 0.4
2018-Feb-19 22:00N 34°41' E 135°22'4 8.5
2018-Feb-19 21:30N 34°39' E 135°26'1 2.8
2018-Feb-19 20:59N 34°39' E 135°28'0 0.0
2018-Feb-19 20:29N 34°39' E 135°28'0 0.0
2018-Feb-19 19:59N 34°39' E 135°28'0 0.0
2018-Feb-19 19:30N 34°39' E 135°28'0 0.0
2018-Feb-19 19:00N 34°39' E 135°28'0 0.0
2018-Feb-19 18:30N 34°39' E 135°28'0 0.0
2018-Feb-19 18:00N 34°39' E 135°28'0 0.0
2018-Feb-19 17:30N 34°39' E 135°28'0 0.0
2018-Feb-19 17:00N 34°39' E 135°28'0 0.0
2018-Feb-19 16:30N 34°39' E 135°28'0 0.0
2018-Feb-19 16:00N 34°39' E 135°28'0 0.0
2018-Feb-19 15:30N 34°39' E 135°28'0 0.0
2018-Feb-19 15:00N 34°39' E 135°28'0 0.0
2018-Feb-19 14:30N 34°39' E 135°28'0 0.0
2018-Feb-19 14:00N 34°39' E 135°28'0 0.0
2018-Feb-19 13:30N 34°39' E 135°28'0 0.0
2018-Feb-19 13:00N 34°39' E 135°28'0 0.0
2018-Feb-19 12:30N 34°39' E 135°28'0 0.0
2018-Feb-19 12:00N 34°39' E 135°28'0 0.0
2018-Feb-19 11:30N 34°39' E 135°28'0 0.0
2018-Feb-19 11:00N 34°39' E 135°28'0 0.0
2018-Feb-19 10:30N 34°39' E 135°28'0 0.0
2018-Feb-19 10:00N 34°39' E 135°28'0 0.0
2018-Feb-19 09:30N 34°39' E 135°28'0 0.0
2018-Feb-19 09:00N 34°39' E 135°28'0 0.0
2018-Feb-19 08:24N 34°39' E 135°28'0 0.0
2018-Feb-19 08:00N 34°39' E 135°28'3 5.8
2018-Feb-19 07:29N 34°39' E 135°24'3 6.9
2018-Feb-19 07:00N 34°41' E 135°21'1 2.5
2018-Feb-19 06:30N 34°41' E 135°22'0 0.0
2018-Feb-19 06:00N 34°41' E 135°22'0 0.0
2018-Feb-19 05:30N 34°41' E 135°22'0 0.0
2018-Feb-19 05:00N 34°41' E 135°22'0 0.0
2018-Feb-19 04:30N 34°41' E 135°22'0 0.0
2018-Feb-19 04:00N 34°41' E 135°22'0 0.0
2018-Feb-19 03:30N 34°41' E 135°22'0 0.0
2018-Feb-19 03:00N 34°41' E 135°22'0 0.0
2018-Feb-19 02:30N 34°41' E 135°22'0 0.0
2018-Feb-19 02:00N 34°41' E 135°22'0 0.0
2018-Feb-19 01:30N 34°41' E 135°22'0 0.0
2018-Feb-19 01:00N 34°41' E 135°22'0 0.0
2018-Feb-19 00:30N 34°41' E 135°22'0 0.0
2018-Feb-19 00:00N 34°41' E 135°22'0 0.0
2018-Feb-18 23:30N 34°41' E 135°22'0 0.2
2018-Feb-18 23:00N 34°41' E 135°23'2 3.1
2018-Feb-18 22:31N 34°41' E 135°21'1 1.5
2018-Feb-18 22:01N 34°41' E 135°22'4 8.7
2018-Feb-18 21:30N 34°39' E 135°26'1 2.5
2018-Feb-18 20:58N 34°39' E 135°28'0 0.0
2018-Feb-18 20:28N 34°39' E 135°28'0 0.0
2018-Feb-18 19:58N 34°39' E 135°28'0 0.0
2018-Feb-18 19:28N 34°39' E 135°28'0 0.0
2018-Feb-18 18:55N 34°39' E 135°28'0 0.0
2018-Feb-18 18:28N 34°39' E 135°28'0 0.0
2018-Feb-18 17:58N 34°39' E 135°28'0 0.0
2018-Feb-18 17:28N 34°39' E 135°28'0 0.0
2018-Feb-18 16:58N 34°39' E 135°28'0 0.0
2018-Feb-18 16:28N 34°39' E 135°28'0 0.0
2018-Feb-18 15:58N 34°39' E 135°28'0 0.0
2018-Feb-18 15:28N 34°39' E 135°28'0 0.0
2018-Feb-18 14:58N 34°39' E 135°28'0 0.0
2018-Feb-18 14:28N 34°39' E 135°28'0 0.0
2018-Feb-18 13:58N 34°39' E 135°28'0 0.0
2018-Feb-18 13:28N 34°39' E 135°28'0 0.0
2018-Feb-18 12:58N 34°39' E 135°28'0 0.0
2018-Feb-18 12:25N 34°39' E 135°28'0 0.0
2018-Feb-18 11:58N 34°39' E 135°28'0 0.0
2018-Feb-18 11:28N 34°39' E 135°28'0 0.0
2018-Feb-18 10:58N 34°39' E 135°28'0 0.0
2018-Feb-18 10:28N 34°39' E 135°28'0 0.0
2018-Feb-18 09:58N 34°39' E 135°28'0 0.0
2018-Feb-18 09:28N 34°39' E 135°28'0 0.0
2018-Feb-18 08:58N 34°39' E 135°28'0 0.0
2018-Feb-18 08:28N 34°39' E 135°28'0 0.0
2018-Feb-18 07:58N 34°39' E 135°28'0 0.0
2018-Feb-18 07:28N 34°39' E 135°28'0 0.0
2018-Feb-18 06:58N 34°39' E 135°28'0 0.0
2018-Feb-18 06:28N 34°39' E 135°28'0 0.0
2018-Feb-18 05:58N 34°39' E 135°28'0 0.0
2018-Feb-18 05:28N 34°39' E 135°28'0 0.0
2018-Feb-18 04:58N 34°39' E 135°28'0 0.0
2018-Feb-18 04:28N 34°39' E 135°28'0 0.0
2018-Feb-18 03:58N 34°39' E 135°28'0 0.0
2018-Feb-18 03:28N 34°39' E 135°28'0 0.0
2018-Feb-18 02:58N 34°39' E 135°28'0 0.0
2018-Feb-18 02:28N 34°39' E 135°28'0 0.0
2018-Feb-18 01:58N 34°39' E 135°28'0 0.0
2018-Feb-18 01:26N 34°39' E 135°28'0 0.0
2018-Feb-18 00:59N 34°39' E 135°28'0 0.0
2018-Feb-18 00:29N 34°39' E 135°28'0 0.0
2018-Feb-18 00:00N 34°39' E 135°28'0 0.0
2018-Feb-17 23:28N 34°39' E 135°28'0 0.0
2018-Feb-17 22:58N 34°39' E 135°28'0 0.0
2018-Feb-17 22:28N 34°39' E 135°28'0 0.0
2018-Feb-17 21:58N 34°39' E 135°28'0 0.0
2018-Feb-17 21:28N 34°39' E 135°28'0 0.0
2018-Feb-17 20:58N 34°39' E 135°28'0 0.0
2018-Feb-17 20:28N 34°39' E 135°28'0 0.0
2018-Feb-17 19:58N 34°39' E 135°28'0 0.0
2018-Feb-17 19:28N 34°39' E 135°28'0 0.0
2018-Feb-17 18:58N 34°39' E 135°28'0 0.0
2018-Feb-17 18:28N 34°39' E 135°28'0 0.0
2018-Feb-17 17:58N 34°39' E 135°28'0 0.0
2018-Feb-17 17:28N 34°39' E 135°28'0 0.0
2018-Feb-17 16:58N 34°39' E 135°28'0 0.0
2018-Feb-17 16:28N 34°39' E 135°28'0 0.0
2018-Feb-17 15:58N 34°39' E 135°28'0 0.0
2018-Feb-17 15:28N 34°39' E 135°28'0 0.0
2018-Feb-17 14:58N 34°39' E 135°28'0 0.0
2018-Feb-17 14:28N 34°39' E 135°28'0 0.0
2018-Feb-17 13:58N 34°39' E 135°28'0 0.0
2018-Feb-17 13:28N 34°39' E 135°28'0 0.0
2018-Feb-17 12:58N 34°39' E 135°28'0 0.0
2018-Feb-17 12:28N 34°39' E 135°28'0 0.0
2018-Feb-17 11:58N 34°39' E 135°28'0 0.0
2018-Feb-17 11:25N 34°39' E 135°28'0 0.0
2018-Feb-17 10:58N 34°39' E 135°28'0 0.0
2018-Feb-17 10:28N 34°39' E 135°28'0 0.0
2018-Feb-17 09:58N 34°39' E 135°28'0 0.0
2018-Feb-17 09:28N 34°39' E 135°28'0 0.0
2018-Feb-17 08:58N 34°39' E 135°28'0 0.0
2018-Feb-17 08:28N 34°39' E 135°28'0 0.0
2018-Feb-17 07:58N 34°39' E 135°28'0 0.0
2018-Feb-17 07:28N 34°39' E 135°28'0 0.0
2018-Feb-17 06:58N 34°39' E 135°28'0 0.0
2018-Feb-17 06:28N 34°39' E 135°28'0 0.0
2018-Feb-17 05:58N 34°39' E 135°28'0 0.0
2018-Feb-17 05:28N 34°39' E 135°28'0 0.0
2018-Feb-17 04:58N 34°39' E 135°28'0 0.0
2018-Feb-17 04:28N 34°39' E 135°28'0 0.0
2018-Feb-17 03:58N 34°39' E 135°28'0 0.0
2018-Feb-17 03:28N 34°39' E 135°28'0 0.0
2018-Feb-17 02:58N 34°39' E 135°28'0 0.0
2018-Feb-17 02:28N 34°39' E 135°28'0 0.0
2018-Feb-17 01:58N 34°39' E 135°28'0 0.0
2018-Feb-17 01:28N 34°39' E 135°28'0 0.0
2018-Feb-17 00:58N 34°39' E 135°28'0 0.0
2018-Feb-17 00:28N 34°39' E 135°28'0 0.0
2018-Feb-16 23:58N 34°39' E 135°28'0 0.0
2018-Feb-16 23:28N 34°39' E 135°28'0 0.0
2018-Feb-16 22:58N 34°39' E 135°28'0 0.0
2018-Feb-16 22:28N 34°39' E 135°28'0 0.0
2018-Feb-16 21:58N 34°39' E 135°28'0 0.0
2018-Feb-16 21:29N 34°39' E 135°28'0 0.0
2018-Feb-16 20:59N 34°39' E 135°28'0 0.0
2018-Feb-16 20:29N 34°39' E 135°28'0 0.0
2018-Feb-16 19:59N 34°39' E 135°28'0 0.0
2018-Feb-16 19:29N 34°39' E 135°28'0 0.0
2018-Feb-16 18:59N 34°39' E 135°28'0 0.0
2018-Feb-16 18:29N 34°39' E 135°28'0 0.0
2018-Feb-16 17:59N 34°39' E 135°28'0 0.0
2018-Feb-16 17:29N 34°39' E 135°28'0 0.0
2018-Feb-16 16:59N 34°39' E 135°28'0 0.0
2018-Feb-16 16:23N 34°39' E 135°28'0 0.0
2018-Feb-16 15:59N 34°39' E 135°28'0 0.0
2018-Feb-16 15:29N 34°39' E 135°28'0 0.0
2018-Feb-16 14:59N 34°39' E 135°28'0 0.0
2018-Feb-16 14:29N 34°39' E 135°28'0 0.0
2018-Feb-16 13:59N 34°39' E 135°28'0 0.0
2018-Feb-16 13:29N 34°39' E 135°28'0 0.0
2018-Feb-16 12:59N 34°39' E 135°28'0 0.0
2018-Feb-16 12:29N 34°39' E 135°28'0 0.0
2018-Feb-16 11:59N 34°39' E 135°28'0 0.0
2018-Feb-16 11:29N 34°39' E 135°28'0 0.0
2018-Feb-16 11:00N 34°39' E 135°28'0 0.0
2018-Feb-16 10:29N 34°39' E 135°28'0 0.0
2018-Feb-16 10:00N 34°39' E 135°28'0 0.0
2018-Feb-16 09:30N 34°39' E 135°28'0 0.0
2018-Feb-16 08:59N 34°39' E 135°28'0 0.0
2018-Feb-16 08:29N 34°39' E 135°28'0 0.0
2018-Feb-16 08:00N 34°39' E 135°28'2 5.0
2018-Feb-16 07:30N 34°39' E 135°25'3 5.8
2018-Feb-16 07:00N 34°41' E 135°22'0 0.0
2018-Feb-16 06:30N 34°41' E 135°22'0 0.0
2018-Feb-16 06:00N 34°41' E 135°22'0 0.0
2018-Feb-16 05:30N 34°41' E 135°22'0 0.0
2018-Feb-16 04:55N 34°41' E 135°22'0 0.0
2018-Feb-16 04:28N 34°41' E 135°22'0 0.0
2018-Feb-16 04:00N 34°41' E 135°22'0 0.0
2018-Feb-16 03:27N 34°41' E 135°22'0 0.0
2018-Feb-16 02:58N 34°41' E 135°22'0 0.0
2018-Feb-16 02:28N 34°41' E 135°22'1 2.6
2018-Feb-16 02:00N 34°41' E 135°21'1 2.1
2018-Feb-16 01:30N 34°40' E 135°20'3 5.6
2018-Feb-16 01:00N 34°39' E 135°17'0 0.0
2018-Feb-16 00:30N 34°39' E 135°17'0 0.0
2018-Feb-16 00:00N 34°39' E 135°17'0 0.0
2018-Feb-15 23:30N 34°39' E 135°17'2 3.3
2018-Feb-15 23:00N 34°40' E 135°19'2 4.4
2018-Feb-15 22:30N 34°41' E 135°21'0 0.7
2018-Feb-15 22:01N 34°41' E 135°22'4 8.7
2018-Feb-15 21:31N 34°39' E 135°26'1 2.6
2018-Feb-15 20:58N 34°39' E 135°28'0 0.0
2018-Feb-15 20:28N 34°39' E 135°28'0 0.0
2018-Feb-15 19:58N 34°39' E 135°28'0 0.0
2018-Feb-15 19:28N 34°39' E 135°28'0 0.0
2018-Feb-15 18:58N 34°39' E 135°28'0 0.0
2018-Feb-15 18:28N 34°39' E 135°28'0 0.0
2018-Feb-15 17:58N 34°39' E 135°28'0 0.0
2018-Feb-15 17:28N 34°39' E 135°28'0 0.0
2018-Feb-15 16:58N 34°39' E 135°28'0 0.0
2018-Feb-15 16:28N 34°39' E 135°28'0 0.0
2018-Feb-15 15:58N 34°39' E 135°28'0 0.0
2018-Feb-15 15:28N 34°39' E 135°28'0 0.0
2018-Feb-15 14:55N 34°39' E 135°28'0 0.0
2018-Feb-15 14:28N 34°39' E 135°28'0 0.0
2018-Feb-15 13:58N 34°39' E 135°28'0 0.0
2018-Feb-15 13:28N 34°39' E 135°28'0 0.0
2018-Feb-15 12:58N 34°39' E 135°28'0 0.0
2018-Feb-15 12:28N 34°39' E 135°28'0 0.0
2018-Feb-15 11:58N 34°39' E 135°28'0 0.0
2018-Feb-15 11:28N 34°39' E 135°28'0 0.0
2018-Feb-15 10:58N 34°39' E 135°28'0 0.0
2018-Feb-15 10:28N 34°39' E 135°28'0 0.0
2018-Feb-15 09:58N 34°39' E 135°28'0 0.0
2018-Feb-15 09:28N 34°39' E 135°28'0 0.0
2018-Feb-15 08:58N 34°39' E 135°28'0 0.0
2018-Feb-15 08:28N 34°39' E 135°28'0 0.0
2018-Feb-15 07:58N 34°39' E 135°28'0 0.0
2018-Feb-15 07:28N 34°39' E 135°28'0 0.0
2018-Feb-15 06:58N 34°39' E 135°28'0 0.0
2018-Feb-15 06:30N 34°39' E 135°28'3 5.4
2018-Feb-15 06:00N 34°39' E 135°25'3 7.0
2018-Feb-15 05:30N 34°41' E 135°21'1 2.3
2018-Feb-15 05:00N 34°41' E 135°22'0 0.0
2018-Feb-15 04:30N 34°41' E 135°22'0 0.0
2018-Feb-15 04:00N 34°41' E 135°22'0 0.0
2018-Feb-15 03:30N 34°41' E 135°22'0 0.0
2018-Feb-15 03:00N 34°41' E 135°22'0 0.0
2018-Feb-15 02:30N 34°41' E 135°22'0 0.0
2018-Feb-15 02:00N 34°41' E 135°22'0 0.0
2018-Feb-15 01:27N 34°41' E 135°22'0 0.0
2018-Feb-15 01:00N 34°41' E 135°22'0 0.0
2018-Feb-15 00:31N 34°41' E 135°22'0 0.0
2018-Feb-15 00:00N 34°41' E 135°22'0 0.0
2018-Feb-14 23:30N 34°41' E 135°22'0 0.5
2018-Feb-14 23:00N 34°41' E 135°22'1 2.3
2018-Feb-14 22:29N 34°41' E 135°21'1 1.1
2018-Feb-14 22:00N 34°41' E 135°21'4 8.6
2018-Feb-14 21:30N 34°39' E 135°26'2 2.8
2018-Feb-14 20:58N 34°39' E 135°28'0 0.0
2018-Feb-14 20:28N 34°39' E 135°28'0 0.0
2018-Feb-14 19:58N 34°39' E 135°28'0 0.0
2018-Feb-14 19:28N 34°39' E 135°28'0 0.0
2018-Feb-14 18:55N 34°39' E 135°28'0 0.0
2018-Feb-14 18:28N 34°39' E 135°28'0 0.0
2018-Feb-14 17:58N 34°39' E 135°28'0 0.0
2018-Feb-14 17:28N 34°39' E 135°28'0 0.0
2018-Feb-14 16:59N 34°39' E 135°28'0 0.0
2018-Feb-14 16:29N 34°39' E 135°28'0 0.0
2018-Feb-14 15:59N 34°39' E 135°28'0 0.0
2018-Feb-14 15:29N 34°39' E 135°28'0 0.0
2018-Feb-14 14:59N 34°39' E 135°28'0 0.0
2018-Feb-14 14:29N 34°39' E 135°28'0 0.0
2018-Feb-14 13:59N 34°39' E 135°28'0 0.0
2018-Feb-14 13:29N 34°39' E 135°28'0 0.0
2018-Feb-14 12:59N 34°39' E 135°28'0 0.0
2018-Feb-14 12:29N 34°39' E 135°28'0 0.0
2018-Feb-14 11:59N 34°39' E 135°28'0 0.0
2018-Feb-14 11:29N 34°39' E 135°28'0 0.0
2018-Feb-14 10:59N 34°39' E 135°28'0 0.0
2018-Feb-14 10:29N 34°39' E 135°28'0 0.0
2018-Feb-14 09:59N 34°39' E 135°28'0 0.0
2018-Feb-14 09:29N 34°39' E 135°28'0 0.0
2018-Feb-14 08:59N 34°39' E 135°28'0 0.0
2018-Feb-14 08:26N 34°39' E 135°28'0 0.0
2018-Feb-14 07:59N 34°39' E 135°28'0 0.0
2018-Feb-14 07:29N 34°39' E 135°28'1 2.2
2018-Feb-14 06:59N 34°39' E 135°27'4 8.1
2018-Feb-14 06:30N 34°40' E 135°23'1 1.1
2018-Feb-14 05:58N 34°41' E 135°22'0 0.0
2018-Feb-14 05:28N 34°41' E 135°22'  

Dump ship's entire track history